Time;durP1;ratioP1;P1;durP2;ratioP2;P2;SDS_P1;SDS_P2;PMS_P1;PMS_P2;Temp;Humidity;BMP_temperature;BMP_pressure;BME280_temperature;BME280_humidity;BME280_pressure;Samples;Min_cycle;Max_cycle;Signal;HPM_P1;HPM_P2
2023/08/02 00:01:17;;;;;;;5.70;2.60;;;15.10;99.90;;;;;;485429;245;28817;-79
2023/08/02 00:03:19;;;;;;;5.57;2.60;;;15.10;99.90;;;;;;485469;245;28782;-84
2023/08/02 00:05:20;;;;;;;6.20;2.50;;;15.10;99.90;;;;;;485431;245;28792;-82
2023/08/02 00:07:21;;;;;;;5.37;2.70;;;15.00;99.90;;;;;;485438;245;29173;-80
2023/08/02 00:09:22;;;;;;;3.50;2.53;;;15.00;99.90;;;;;;485398;245;28793;-83
2023/08/02 00:11:23;;;;;;;4.67;2.60;;;15.00;99.90;;;;;;485496;245;28793;-81
2023/08/02 00:13:25;;;;;;;4.60;2.60;;;15.00;99.90;;;;;;485461;245;29245;-82
2023/08/02 00:15:26;;;;;;;4.33;2.43;;;15.00;99.90;;;;;;485510;245;29340;-82
2023/08/02 00:17:27;;;;;;;3.50;2.63;;;15.00;99.90;;;;;;485539;245;29486;-78
2023/08/02 00:19:28;;;;;;;5.43;2.70;;;15.00;99.90;;;;;;485504;245;28855;-80
2023/08/02 00:21:30;;;;;;;5.80;2.70;;;15.00;99.90;;;;;;485514;245;28785;-80
2023/08/02 00:23:31;;;;;;;2.90;2.60;;;14.90;99.90;;;;;;485417;245;28802;-80
2023/08/02 00:25:32;;;;;;;3.03;2.13;;;14.90;99.90;;;;;;485487;245;28764;-80
2023/08/02 00:27:34;;;;;;;4.07;2.67;;;14.90;99.90;;;;;;485493;245;28825;-80
2023/08/02 00:29:35;;;;;;;6.07;2.63;;;14.90;99.90;;;;;;485403;245;28854;-81
2023/08/02 00:31:36;;;;;;;5.90;2.60;;;14.90;99.90;;;;;;485455;245;28804;-83
2023/08/02 00:33:37;;;;;;;5.40;2.80;;;14.90;99.90;;;;;;485460;245;28899;-86
2023/08/02 00:35:39;;;;;;;2.83;2.63;;;14.90;99.90;;;;;;485423;245;28857;-80
2023/08/02 00:37:40;;;;;;;3.07;2.57;;;14.90;99.90;;;;;;485368;245;29332;-79
2023/08/02 00:39:41;;;;;;;3.73;2.80;;;14.90;99.90;;;;;;485325;245;29328;-85
2023/08/02 00:41:42;;;;;;;4.10;2.77;;;14.90;99.90;;;;;;485374;245;29152;-81
2023/08/02 00:43:44;;;;;;;5.87;2.80;;;15.00;99.90;;;;;;485466;245;29115;-83
2023/08/02 00:45:45;;;;;;;4.07;2.97;;;15.00;99.90;;;;;;485368;245;28690;-81
2023/08/02 00:47:46;;;;;;;6.63;2.70;;;15.10;99.90;;;;;;485541;245;28761;-83
2023/08/02 00:49:47;;;;;;;4.07;2.50;;;15.10;99.90;;;;;;485392;245;28814;-84
2023/08/02 00:51:49;;;;;;;5.40;2.80;;;15.10;99.90;;;;;;485490;245;28816;-80
2023/08/02 00:53:50;;;;;;;5.30;2.50;;;15.10;99.90;;;;;;485348;245;28872;-85
2023/08/02 00:55:51;;;;;;;7.00;3.20;;;15.10;99.90;;;;;;485417;245;28864;-85
2023/08/02 00:57:52;;;;;;;4.40;2.73;;;15.20;99.90;;;;;;485463;245;28813;-79
2023/08/02 00:59:54;;;;;;;3.47;2.73;;;15.20;99.90;;;;;;485511;245;28774;-83
2023/08/02 01:01:55;;;;;;;3.97;2.80;;;15.20;99.90;;;;;;485505;245;28828;-82
2023/08/02 01:03:56;;;;;;;5.00;3.27;;;15.20;99.90;;;;;;485407;245;29222;-79
2023/08/02 01:05:57;;;;;;;4.50;2.60;;;15.20;99.90;;;;;;485515;245;29370;-81
2023/08/02 01:07:59;;;;;;;11.00;3.20;;;15.20;99.90;;;;;;485476;245;28876;-79
2023/08/02 01:10:00;;;;;;;3.80;2.93;;;15.20;99.90;;;;;;485545;245;28784;-81
2023/08/02 01:12:01;;;;;;;3.97;2.40;;;15.20;99.90;;;;;;485577;245;28809;-80
2023/08/02 01:14:02;;;;;;;4.43;2.80;;;15.20;99.90;;;;;;485459;245;28904;-80
2023/08/02 01:16:04;;;;;;;7.30;3.23;;;15.20;99.90;;;;;;485455;245;28916;-80
2023/08/02 01:18:05;;;;;;;3.87;2.40;;;15.20;99.90;;;;;;485398;245;28769;-81
2023/08/02 01:20:06;;;;;;;6.90;2.70;;;15.20;99.90;;;;;;485491;245;28884;-85
2023/08/02 01:22:07;;;;;;;8.80;2.70;;;15.20;99.90;;;;;;485440;245;28842;-83
2023/08/02 01:24:09;;;;;;;6.67;3.27;;;15.20;99.90;;;;;;485393;245;28792;-77
2023/08/02 01:26:10;;;;;;;5.53;3.33;;;15.10;99.90;;;;;;485560;245;28802;-81
2023/08/02 01:28:11;;;;;;;4.53;2.57;;;15.10;99.90;;;;;;485507;245;29252;-82
2023/08/02 01:30:12;;;;;;;3.13;2.83;;;15.10;99.90;;;;;;485461;245;29262;-81
2023/08/02 01:32:14;;;;;;;5.33;2.70;;;15.00;99.90;;;;;;485498;245;28774;-81
2023/08/02 01:34:15;;;;;;;7.60;2.63;;;15.10;99.90;;;;;;485456;245;28849;-79
2023/08/02 01:36:16;;;;;;;4.40;2.70;;;15.00;99.90;;;;;;485521;245;28924;-82
2023/08/02 01:38:17;;;;;;;3.17;2.87;;;15.00;99.90;;;;;;485557;245;28844;-79
2023/08/02 01:40:19;;;;;;;2.83;2.50;;;14.90;99.90;;;;;;485529;245;28862;-80
2023/08/02 01:42:20;;;;;;;4.60;3.10;;;14.90;99.90;;;;;;485539;245;28844;-82
2023/08/02 01:44:21;;;;;;;9.53;3.33;;;14.90;99.90;;;;;;485421;245;28845;-78
2023/08/02 01:46:22;;;;;;;3.43;2.30;;;14.90;99.90;;;;;;485490;245;28785;-80
2023/08/02 01:48:25;;;;;;;3.03;2.63;;;15.00;99.90;;;;;;485499;245;28768;-81
2023/08/02 01:50:25;;;;;;;3.90;2.60;;;15.00;99.90;;;;;;485318;245;28856;-81
2023/08/02 01:52:26;;;;;;;5.97;2.83;;;15.00;99.90;;;;;;485440;245;29320;-80
2023/08/02 01:54:27;;;;;;;3.17;2.60;;;15.00;99.90;;;;;;485290;245;30100;-83
2023/08/02 01:56:29;;;;;;;4.10;2.77;;;15.00;99.90;;;;;;485436;245;29372;-81
2023/08/02 01:58:30;;;;;;;5.90;2.70;;;14.90;99.90;;;;;;485516;245;28856;-81
2023/08/02 02:00:31;;;;;;;4.87;3.00;;;14.90;99.90;;;;;;485504;245;28864;-82
2023/08/02 02:02:32;;;;;;;4.87;2.93;;;15.00;99.90;;;;;;485453;245;28854;-83
2023/08/02 02:04:34;;;;;;;5.40;2.80;;;15.00;99.90;;;;;;485496;245;28777;-82
2023/08/02 02:06:35;;;;;;;6.13;3.10;;;15.00;99.90;;;;;;485470;245;28780;-82
2023/08/02 02:08:36;;;;;;;6.70;2.67;;;14.90;99.90;;;;;;485453;245;28777;-81
2023/08/02 02:10:37;;;;;;;6.63;2.70;;;15.00;99.90;;;;;;485476;245;28824;-82
2023/08/02 02:12:39;;;;;;;3.97;2.90;;;15.00;99.90;;;;;;485463;245;28927;-81
2023/08/02 02:14:40;;;;;;;7.97;2.90;;;14.90;99.90;;;;;;485368;245;28790;-82
2023/08/02 02:16:41;;;;;;;6.27;3.30;;;15.00;99.90;;;;;;485522;245;29340;-79
2023/08/02 02:18:42;;;;;;;5.77;2.90;;;15.00;99.90;;;;;;485481;245;29319;-79
2023/08/02 02:20:44;;;;;;;3.83;3.07;;;15.00;99.90;;;;;;485532;245;29399;-78
2023/08/02 02:22:45;;;;;;;8.03;3.13;;;15.00;99.90;;;;;;485482;245;28843;-80
2023/08/02 02:24:46;;;;;;;3.77;3.00;;;15.00;99.90;;;;;;485531;245;28837;-82
2023/08/02 02:26:47;;;;;;;7.87;2.83;;;14.90;99.90;;;;;;485485;245;28806;-81
2023/08/02 02:28:49;;;;;;;4.70;3.10;;;15.00;99.90;;;;;;485493;245;28877;-80
2023/08/02 02:30:50;;;;;;;5.27;2.80;;;15.00;99.90;;;;;;485457;245;28821;-79
2023/08/02 02:32:52;;;;;;;6.83;3.10;;;15.00;99.90;;;;;;485514;245;28796;-80
2023/08/02 02:34:52;;;;;;;3.07;2.53;;;15.00;99.90;;;;;;485433;245;28866;-81
2023/08/02 02:36:54;;;;;;;4.67;2.63;;;15.00;99.90;;;;;;485505;245;28848;-82
2023/08/02 02:38:55;;;;;;;3.10;2.30;;;15.00;99.90;;;;;;485482;245;28864;-81
2023/08/02 02:40:56;;;;;;;7.20;3.03;;;15.00;99.90;;;;;;485476;245;28774;-80
2023/08/02 02:42:57;;;;;;;5.97;2.83;;;14.90;99.90;;;;;;485446;245;29307;-81
2023/08/02 02:44:59;;;;;;;6.83;2.77;;;14.90;99.90;;;;;;485497;245;29321;-79
2023/08/02 02:47:00;;;;;;;4.10;2.87;;;14.90;99.90;;;;;;485458;245;29223;-83
2023/08/02 02:49:01;;;;;;;3.90;2.93;;;14.90;99.90;;;;;;485436;245;28858;-84
2023/08/02 02:51:02;;;;;;;4.10;3.07;;;14.90;99.90;;;;;;485446;245;28836;-79
2023/08/02 02:53:04;;;;;;;3.20;2.60;;;14.90;99.90;;;;;;485446;245;28774;-81
2023/08/02 02:55:05;;;;;;;5.37;3.17;;;14.90;99.90;;;;;;485389;245;28774;-82
2023/08/02 02:57:06;;;;;;;4.23;2.70;;;15.00;99.90;;;;;;485485;245;28785;-80
2023/08/02 02:59:07;;;;;;;8.87;3.37;;;15.00;99.90;;;;;;485478;245;28907;-79
2023/08/02 03:01:09;;;;;;;5.60;2.80;;;15.00;99.90;;;;;;485484;245;28487;-82
2023/08/02 03:03:10;;;;;;;4.43;2.87;;;15.00;99.90;;;;;;485518;245;28774;-80
2023/08/02 03:05:11;;;;;;;3.77;2.90;;;15.00;99.90;;;;;;485457;245;28805;-80
2023/08/02 03:07:12;;;;;;;6.17;3.17;;;15.00;99.90;;;;;;485417;245;30026;-81
2023/08/02 03:09:14;;;;;;;3.87;3.13;;;15.00;99.90;;;;;;485547;245;29288;-80
2023/08/02 03:11:15;;;;;;;6.03;3.00;;;15.00;99.90;;;;;;485523;245;29396;-78
2023/08/02 03:13:16;;;;;;;3.90;2.93;;;15.00;99.90;;;;;;485501;245;28855;-81
2023/08/02 03:15:17;;;;;;;4.83;2.80;;;15.00;99.90;;;;;;485493;245;28808;-81
2023/08/02 03:17:19;;;;;;;4.87;3.30;;;15.00;99.90;;;;;;485552;245;28849;-81
2023/08/02 03:19:20;;;;;;;6.07;3.10;;;15.00;99.90;;;;;;485414;245;28777;-82
2023/08/02 03:21:21;;;;;;;6.40;2.93;;;15.00;99.90;;;;;;485525;245;28853;-80
2023/08/02 03:23:22;;;;;;;4.60;3.00;;;15.00;99.90;;;;;;485487;245;28777;-85
2023/08/02 03:25:24;;;;;;;7.40;3.47;;;15.10;99.90;;;;;;485341;245;28926;-81
2023/08/02 03:27:25;;;;;;;5.00;2.70;;;15.10;99.90;;;;;;485411;245;28767;-82
2023/08/02 03:29:26;;;;;;;7.47;3.30;;;15.20;99.90;;;;;;485540;245;28762;-79
2023/08/02 03:31:27;;;;;;;3.30;2.50;;;15.20;99.90;;;;;;485455;245;29365;-81
2023/08/02 03:33:29;;;;;;;6.83;3.40;;;15.20;99.90;;;;;;485406;245;29356;-83
2023/08/02 03:35:30;;;;;;;5.97;3.60;;;15.20;99.90;;;;;;485435;245;29334;-82
2023/08/02 03:37:31;;;;;;;7.00;3.30;;;15.30;99.90;;;;;;485536;245;28782;-82
2023/08/02 03:39:32;;;;;;;5.83;2.73;;;15.30;99.90;;;;;;485489;245;28760;-83
2023/08/02 03:41:34;;;;;;;7.23;3.80;;;15.30;99.90;;;;;;485552;245;28889;-82
2023/08/02 03:43:35;;;;;;;6.10;3.20;;;15.30;99.90;;;;;;485566;245;28924;-81
2023/08/02 03:45:36;;;;;;;3.10;2.83;;;15.30;99.90;;;;;;485650;245;28878;-80
2023/08/02 03:47:37;;;;;;;7.33;3.40;;;15.30;99.90;;;;;;485589;245;29271;-82
2023/08/02 03:49:39;;;;;;;5.90;3.67;;;15.20;99.90;;;;;;485497;245;28769;-83
2023/08/02 03:51:40;;;;;;;6.67;3.33;;;15.20;99.90;;;;;;485571;245;28785;-82
2023/08/02 03:53:41;;;;;;;5.93;3.00;;;15.20;99.90;;;;;;485562;245;28783;-82
2023/08/02 03:55:42;;;;;;;4.70;3.47;;;15.20;99.90;;;;;;485503;245;28880;-83
2023/08/02 03:57:44;;;;;;;6.03;3.70;;;15.20;99.90;;;;;;485157;245;29449;-83
2023/08/02 03:59:45;;;;;;;7.03;3.47;;;15.10;99.90;;;;;;485326;245;29220;-81
2023/08/02 04:01:46;;;;;;;4.50;3.40;;;15.10;99.90;;;;;;485419;245;28861;-81
2023/08/02 04:03:47;;;;;;;4.13;3.13;;;15.00;99.90;;;;;;485655;245;28821;-80
2023/08/02 04:05:49;;;;;;;4.37;3.07;;;15.00;99.90;;;;;;485657;245;28840;-82
2023/08/02 04:07:50;;;;;;;3.70;2.90;;;15.00;99.90;;;;;;485572;245;28820;-82
2023/08/02 04:09:51;;;;;;;6.07;3.40;;;15.00;99.90;;;;;;485622;245;28750;-82
2023/08/02 04:11:52;;;;;;;5.73;2.93;;;15.00;99.90;;;;;;485670;245;28788;-81
2023/08/02 04:13:54;;;;;;;5.80;3.47;;;15.00;99.90;;;;;;485623;245;28752;-82
2023/08/02 04:15:55;;;;;;;4.60;3.00;;;15.00;99.90;;;;;;485691;245;28923;-79
2023/08/02 04:17:56;;;;;;;5.80;3.00;;;15.00;99.90;;;;;;485714;245;28782;-80
2023/08/02 04:19:57;;;;;;;6.43;3.30;;;15.00;99.90;;;;;;485632;245;28791;-79
2023/08/02 04:21:59;;;;;;;3.50;2.67;;;15.00;99.90;;;;;;485718;245;29353;-80
2023/08/02 04:24:00;;;;;;;5.97;3.20;;;15.00;99.90;;;;;;485636;245;30171;-78
2023/08/02 04:26:01;;;;;;;4.03;3.23;;;15.00;99.90;;;;;;485628;245;29325;-80
2023/08/02 04:28:02;;;;;;;11.40;3.40;;;15.00;99.90;;;;;;485536;245;28558;-79
2023/08/02 04:30:04;;;;;;;3.97;3.63;;;15.00;99.90;;;;;;485491;245;28842;-82
2023/08/02 04:32:05;;;;;;;3.30;2.77;;;15.00;99.90;;;;;;486882;232;28817;-80
2023/08/02 04:34:06;;;;;;;4.73;3.33;;;14.90;99.90;;;;;;470767;253;28900;-81
2023/08/02 04:36:07;;;;;;;4.43;3.30;;;15.00;99.90;;;;;;470867;253;28895;-78
2023/08/02 04:38:09;;;;;;;3.80;3.23;;;15.00;99.90;;;;;;471943;251;28872;-82
2023/08/02 04:40:10;;;;;;;3.73;2.90;;;15.00;99.90;;;;;;485561;245;28830;-80
2023/08/02 04:42:11;;;;;;;3.70;3.30;;;15.00;99.90;;;;;;470866;253;28927;-79
2023/08/02 04:44:13;;;;;;;4.00;3.27;;;15.00;99.90;;;;;;472015;251;28964;-78
2023/08/02 04:46:14;;;;;;;4.10;3.27;;;15.00;99.90;;;;;;485580;245;29358;-81
2023/08/02 04:48:15;;;;;;;4.90;3.67;;;15.00;99.90;;;;;;470826;253;29688;-80
2023/08/02 04:50:16;;;;;;;4.10;2.97;;;15.00;99.90;;;;;;472001;251;29351;-78
2023/08/02 04:52:18;;;;;;;5.10;3.10;;;15.00;99.90;;;;;;485571;245;28907;-78
2023/08/02 04:54:19;;;;;;;3.20;2.90;;;15.00;99.90;;;;;;470889;253;28870;-78
2023/08/02 04:56:20;;;;;;;6.40;3.10;;;15.00;99.90;;;;;;472077;251;28936;-79
2023/08/02 04:58:23;;;;;;;9.17;2.97;;;15.00;99.90;;;;;;485555;245;28972;-80
2023/08/02 05:00:23;;;;;;;4.73;2.57;;;15.10;99.90;;;;;;470721;253;28921;-78
2023/08/02 05:02:33;;;;;;;4.17;2.90;;;15.10;99.90;;;;;;472030;251;28872;-80
2023/08/02 05:04:28;;;;;;;4.47;3.23;;;15.00;99.90;;;;;;485055;245;28849;-80
2023/08/02 05:06:29;;;;;;;3.23;2.97;;;15.00;99.90;;;;;;470898;253;28845;-83
2023/08/02 05:08:30;;;;;;;3.60;2.87;;;15.00;99.90;;;;;;472027;246;28851;-81
2023/08/02 05:10:32;;;;;;;3.20;2.87;;;15.10;99.90;;;;;;485621;245;28870;-81
2023/08/02 05:12:33;;;;;;;3.70;3.37;;;15.10;99.90;;;;;;485584;245;28801;-82
2023/08/02 05:14:34;;;;;;;4.47;3.17;;;15.10;99.90;;;;;;470758;253;28949;-83
2023/08/02 05:16:36;;;;;;;3.70;2.90;;;15.10;99.90;;;;;;471935;251;28939;-80
2023/08/02 05:18:37;;;;;;;4.23;2.93;;;15.00;99.90;;;;;;485376;245;28883;-81
2023/08/02 05:20:38;;;;;;;2.50;2.33;;;15.10;99.90;;;;;;470664;253;29476;-79
2023/08/02 05:22:39;;;;;;;3.53;3.20;;;15.10;99.90;;;;;;471868;251;29464;-81
2023/08/02 05:24:40;;;;;;;3.30;2.80;;;15.10;99.90;;;;;;485444;245;29275;-80
2023/08/02 05:26:42;;;;;;;3.93;3.00;;;15.10;99.90;;;;;;470565;252;28839;-80
2023/08/02 05:28:43;;;;;;;3.90;3.07;;;15.10;99.90;;;;;;471830;251;28926;-84
2023/08/02 05:30:44;;;;;;;3.30;2.87;;;15.10;99.90;;;;;;485305;245;28736;-80
2023/08/02 05:32:45;;;;;;;3.13;2.90;;;15.20;99.90;;;;;;470647;253;29013;-80
2023/08/02 05:34:47;;;;;;;2.80;2.57;;;15.20;99.90;;;;;;479275;248;28900;-78
2023/08/02 05:36:48;;;;;;;4.60;2.70;;;15.20;99.90;;;;;;487599;244;28721;-80
2023/08/02 05:38:49;;;;;;;3.23;2.53;;;15.20;99.90;;;;;;487575;244;28741;-83
2023/08/02 05:40:50;;;;;;;2.80;2.43;;;15.30;99.90;;;;;;478725;249;28785;-82
2023/08/02 05:42:52;;;;;;;3.37;2.53;;;15.30;99.90;;;;;;487525;244;28748;-82
2023/08/02 05:44:53;;;;;;;2.80;2.60;;;15.30;99.90;;;;;;487476;243;29201;-83
2023/08/02 05:46:54;;;;;;;2.80;2.60;;;15.30;99.90;;;;;;478679;249;29396;-79
2023/08/02 05:48:55;;;;;;;2.97;2.37;;;15.20;99.90;;;;;;487360;244;29414;-82
2023/08/02 05:50:57;;;;;;;2.30;2.20;;;15.30;99.90;;;;;;487431;244;28745;-81
2023/08/02 05:52:58;;;;;;;3.67;2.40;;;15.30;99.90;;;;;;478627;249;28792;-84
2023/08/02 05:54:59;;;;;;;2.27;2.07;;;15.20;99.90;;;;;;487439;244;28797;-80
2023/08/02 05:57:00;;;;;;;2.50;2.30;;;15.10;99.90;;;;;;487449;242;28778;-78
2023/08/02 05:59:02;;;;;;;2.33;2.13;;;15.10;99.90;;;;;;478735;249;28792;-83
2023/08/02 06:01:03;;;;;;;2.80;2.53;;;15.10;99.90;;;;;;487507;244;28744;-81
2023/08/02 06:03:04;;;;;;;9.13;2.10;;;15.10;99.90;;;;;;487580;244;28713;-80
2023/08/02 06:05:05;;;;;;;2.40;2.20;;;15.10;99.90;;;;;;478596;249;28830;-80
2023/08/02 06:07:07;;;;;;;2.43;2.23;;;15.00;99.90;;;;;;487532;244;28779;-82
2023/08/02 06:09:08;;;;;;;2.33;2.13;;;15.00;99.90;;;;;;487562;244;29286;-82
2023/08/02 06:11:10;;;;;;;2.03;1.93;;;15.10;99.90;;;;;;478736;249;29354;-82
2023/08/02 06:13:10;;;;;;;2.23;1.80;;;15.30;99.90;;;;;;487466;244;29971;-81
2023/08/02 06:15:12;;;;;;;2.30;1.97;;;15.40;99.90;;;;;;487503;244;28780;-80
2023/08/02 06:17:13;;;;;;;2.00;1.90;;;15.40;99.90;;;;;;478726;249;28823;-81
2023/08/02 06:19:14;;;;;;;1.70;1.60;;;15.30;99.90;;;;;;487490;244;28751;-83
2023/08/02 06:21:15;;;;;;;2.40;1.50;;;15.40;99.90;;;;;;487613;244;28786;-80
2023/08/02 06:23:17;;;;;;;1.80;1.70;;;15.40;99.90;;;;;;478853;249;28750;-80
2023/08/02 06:25:18;;;;;;;1.60;1.50;;;15.40;99.90;;;;;;487620;244;28752;-79
2023/08/02 06:27:19;;;;;;;1.70;1.60;;;15.30;99.90;;;;;;487596;244;28775;-80
2023/08/02 06:29:20;;;;;;;1.77;1.67;;;15.30;99.90;;;;;;478771;249;28763;-81
2023/08/02 06:31:22;;;;;;;1.80;1.60;;;15.30;99.90;;;;;;487574;244;28752;-82
2023/08/02 06:33:23;;;;;;;2.73;1.37;;;15.40;99.90;;;;;;487624;244;28724;-78
2023/08/02 06:35:24;;;;;;;1.70;1.60;;;15.40;99.90;;;;;;478757;249;29337;-81
2023/08/02 06:37:25;;;;;;;1.57;1.47;;;15.40;99.90;;;;;;487635;244;29262;-78
2023/08/02 06:39:27;;;;;;;1.40;1.30;;;15.30;99.90;;;;;;487548;243;29284;-81
2023/08/02 06:41:28;;;;;;;1.60;1.50;;;15.40;99.90;;;;;;478799;249;28880;-82
2023/08/02 06:43:29;;;;;;;1.50;1.40;;;15.40;99.90;;;;;;487663;244;28746;-85
2023/08/02 06:45:30;;;;;;;1.53;1.43;;;15.50;99.90;;;;;;487575;244;28724;-82
2023/08/02 06:47:32;;;;;;;1.67;1.20;;;15.50;99.90;;;;;;478885;249;28865;-83
2023/08/02 06:49:33;;;;;;;1.40;1.30;;;15.50;99.90;;;;;;487614;244;28722;-84
2023/08/02 06:51:34;;;;;;;1.77;1.27;;;15.60;99.90;;;;;;487632;244;28812;-81
2023/08/02 06:53:35;;;;;;;1.33;1.23;;;15.60;99.90;;;;;;478816;249;29264;-80
2023/08/02 06:55:37;;;;;;;1.30;1.20;;;15.70;99.90;;;;;;487546;243;28808;-81
2023/08/02 06:57:38;;;;;;;1.10;1.10;;;15.70;99.90;;;;;;487589;244;28741;-83
2023/08/02 06:59:39;;;;;;;1.37;1.27;;;15.70;99.90;;;;;;478764;249;29379;-84
2023/08/02 07:01:40;;;;;;;1.13;1.13;;;15.70;99.90;;;;;;487552;244;29181;-81
2023/08/02 07:03:42;;;;;;;2.10;1.93;;;15.80;99.90;;;;;;487558;244;29371;-81
2023/08/02 07:05:43;;;;;;;5.30;4.40;;;15.80;99.90;;;;;;478817;249;28863;-83
2023/08/02 07:07:44;;;;;;;1.60;1.50;;;15.80;99.90;;;;;;487603;244;28746;-81
2023/08/02 07:09:45;;;;;;;1.50;1.40;;;15.80;99.90;;;;;;487589;244;28786;-83
2023/08/02 07:11:47;;;;;;;1.40;1.30;;;15.90;99.90;;;;;;478769;249;28829;-84
2023/08/02 07:13:48;;;;;;;1.63;1.53;;;15.90;99.90;;;;;;487603;244;28808;-82
2023/08/02 07:15:49;;;;;;;1.17;1.17;;;16.00;99.90;;;;;;487644;243;28810;-81
2023/08/02 07:17:50;;;;;;;1.23;1.23;;;15.90;99.90;;;;;;478841;249;28959;-80
2023/08/02 07:19:52;;;;;;;1.13;1.10;;;15.90;99.90;;;;;;487709;244;28740;-81
2023/08/02 07:21:53;;;;;;;1.27;1.20;;;15.90;99.90;;;;;;487683;243;28831;-83
2023/08/02 07:23:54;;;;;;;1.10;1.10;;;16.00;99.90;;;;;;478869;249;28833;-81
2023/08/02 07:25:55;;;;;;;1.67;1.00;;;15.90;99.90;;;;;;487607;244;29348;-85
2023/08/02 07:27:57;;;;;;;1.00;1.00;;;15.90;99.90;;;;;;487591;244;29192;-80
2023/08/02 07:29:58;;;;;;;1.23;1.07;;;15.80;99.90;;;;;;478788;249;29260;-82
2023/08/02 07:31:59;;;;;;;1.60;1.50;;;15.90;99.90;;;;;;487671;244;28750;-83
2023/08/02 07:34:00;;;;;;;3.27;2.87;;;15.90;99.90;;;;;;487702;244;28736;-82
2023/08/02 07:36:02;;;;;;;2.30;1.50;;;16.00;99.90;;;;;;478866;249;28861;-85
2023/08/02 07:38:03;;;;;;;0.80;0.80;;;16.10;99.90;;;;;;487720;244;28814;-81
2023/08/02 07:40:04;;;;;;;1.37;1.00;;;16.10;99.90;;;;;;487717;244;28715;-82
2023/08/02 07:42:05;;;;;;;1.03;1.03;;;16.20;99.90;;;;;;478971;249;28916;-84
2023/08/02 07:44:07;;;;;;;0.90;0.90;;;16.30;99.90;;;;;;487727;244;28785;-81
2023/08/02 07:46:08;;;;;;;1.30;1.20;;;16.30;99.90;;;;;;487749;244;28776;-82
2023/08/02 07:48:09;;;;;;;1.70;1.10;;;16.40;99.90;;;;;;478929;249;28854;-82
2023/08/02 07:50:11;;;;;;;1.10;1.00;;;16.50;99.90;;;;;;487775;244;29288;-83
2023/08/02 07:52:12;;;;;;;1.00;1.00;;;16.60;99.90;;;;;;487744;244;29179;-83
2023/08/02 07:54:13;;;;;;;1.00;1.00;;;16.60;99.90;;;;;;478908;249;29496;-81
2023/08/02 07:56:14;;;;;;;0.90;0.90;;;16.60;99.90;;;;;;487799;244;28693;-83
2023/08/02 07:58:15;;;;;;;0.60;0.60;;;16.50;99.90;;;;;;487838;244;28781;-81
2023/08/02 08:00:17;;;;;;;0.70;0.70;;;16.40;99.90;;;;;;478935;249;28802;-82
2023/08/02 08:02:18;;;;;;;1.00;1.00;;;16.30;99.90;;;;;;487744;244;28784;-82
2023/08/02 08:04:19;;;;;;;1.13;0.90;;;16.30;99.90;;;;;;487688;244;28745;-82
2023/08/02 08:06:23;;;;;;;0.87;0.87;;;16.20;99.90;;;;;;478847;249;28868;-83
2023/08/02 08:08:22;;;;;;;0.80;0.80;;;16.20;99.90;;;;;;487502;244;28790;-80
2023/08/02 08:10:23;;;;;;;0.90;0.90;;;16.20;99.90;;;;;;487661;244;28710;-80
2023/08/02 08:12:27;;;;;;;1.10;0.90;;;16.30;99.90;;;;;;478900;249;28826;-82
2023/08/02 08:14:25;;;;;;;2.20;1.03;;;16.40;99.90;;;;;;487506;244;29291;-80
2023/08/02 08:16:27;;;;;;;1.10;1.10;;;16.40;99.90;;;;;;487676;244;29185;-81
2023/08/02 08:18:28;;;;;;;0.70;0.70;;;16.40;99.90;;;;;;478809;249;29395;-79
2023/08/02 08:20:29;;;;;;;0.70;0.70;;;16.40;99.90;;;;;;487720;244;28680;-81
2023/08/02 08:22:30;;;;;;;0.70;0.70;;;16.60;99.90;;;;;;487741;244;28663;-81
2023/08/02 08:24:32;;;;;;;0.90;0.90;;;16.60;99.90;;;;;;478908;249;28843;-82
2023/08/02 08:26:33;;;;;;;1.53;0.80;;;16.50;99.90;;;;;;487753;244;28760;-84
2023/08/02 08:28:34;;;;;;;0.70;0.70;;;16.50;99.90;;;;;;487763;244;28712;-79
2023/08/02 08:30:35;;;;;;;0.77;0.77;;;16.50;99.90;;;;;;478934;249;28922;-82
2023/08/02 08:32:37;;;;;;;1.37;0.80;;;16.60;99.90;;;;;;487791;244;28695;-83
2023/08/02 08:34:38;;;;;;;0.80;0.80;;;16.70;99.90;;;;;;487790;244;29147;-81
2023/08/02 08:36:39;;;;;;;0.70;0.70;;;16.70;99.90;;;;;;478905;249;28743;-84
2023/08/02 08:38:40;;;;;;;0.77;0.70;;;16.60;99.90;;;;;;487418;244;28705;-82
2023/08/02 08:40:42;;;;;;;1.43;0.70;;;16.60;99.90;;;;;;487761;244;29314;-81
2023/08/02 08:42:43;;;;;;;0.77;0.77;;;16.70;99.90;;;;;;478966;249;29412;-81
2023/08/02 08:44:44;;;;;;;0.80;0.80;;;16.70;99.90;;;;;;487789;244;28785;-83
2023/08/02 08:46:45;;;;;;;1.10;0.90;;;16.80;99.90;;;;;;487710;244;28723;-82
2023/08/02 08:48:47;;;;;;;0.77;0.77;;;16.90;99.90;;;;;;478926;248;28796;-79
2023/08/02 08:50:48;;;;;;;1.83;0.90;;;17.00;99.90;;;;;;487733;244;28783;-81
2023/08/02 08:52:51;;;;;;;0.77;0.77;;;16.90;99.90;;;;;;487721;243;28806;-82
2023/08/02 08:54:50;;;;;;;1.23;0.83;;;17.00;99.90;;;;;;478747;249;28862;-79
2023/08/02 08:56:52;;;;;;;0.80;0.80;;;17.00;99.90;;;;;;487721;244;28701;-84
2023/08/02 08:58:53;;;;;;;0.80;0.80;;;16.90;99.90;;;;;;487776;244;28727;-85
2023/08/02 09:00:54;;;;;;;1.03;0.80;;;16.80;99.90;;;;;;478889;249;28847;-82
2023/08/02 09:02:55;;;;;;;0.80;0.80;;;16.70;99.90;;;;;;487669;244;28834;-80
2023/08/02 09:04:57;;;;;;;0.80;0.80;;;16.70;99.90;;;;;;487556;243;29318;-82
2023/08/02 09:06:58;;;;;;;0.90;0.90;;;16.70;99.90;;;;;;478627;248;29377;-82
2023/08/02 09:11:16;;;;;;;2.00;1.00;;;16.80;99.90;;;;;;478572;238;28791;-81
2023/08/02 09:13:17;;;;;;;2.33;1.10;;;16.90;99.90;;;;;;487427;240;28888;-82
2023/08/02 09:15:18;;;;;;;1.00;1.00;;;16.90;99.90;;;;;;495735;240;28817;-82
2023/08/02 09:17:20;;;;;;;1.10;1.10;;;16.90;99.90;;;;;;487395;244;28864;-82
2023/08/02 09:19:22;;;;;;;2.83;0.90;;;17.00;99.90;;;;;;496003;240;28741;-81
2023/08/02 09:21:22;;;;;;;4.00;1.20;;;17.10;99.90;;;;;;487519;244;29403;-82
2023/08/02 09:23:23;;;;;;;1.00;1.00;;;17.10;99.90;;;;;;496004;240;29248;-84
2023/08/02 09:25:25;;;;;;;1.37;1.27;;;17.10;99.90;;;;;;487518;244;29381;-81
2023/08/02 09:27:26;;;;;;;1.20;1.10;;;17.20;99.90;;;;;;495980;240;28770;-85
2023/08/02 09:29:27;;;;;;;1.10;1.10;;;17.20;99.90;;;;;;487416;244;28864;-81
2023/08/02 09:31:28;;;;;;;1.10;1.00;;;17.20;99.90;;;;;;495998;240;28687;-82
2023/08/02 09:33:30;;;;;;;3.53;1.37;;;17.20;99.90;;;;;;487458;244;28959;-83
2023/08/02 09:35:31;;;;;;;1.43;1.20;;;17.10;99.90;;;;;;495657;240;28702;-80
2023/08/02 09:37:32;;;;;;;1.53;1.43;;;17.10;99.90;;;;;;487417;244;28794;-82
2023/08/02 09:39:33;;;;;;;1.50;1.40;;;17.20;99.90;;;;;;495956;240;28742;-79
2023/08/02 09:41:35;;;;;;;1.13;1.03;;;17.20;99.90;;;;;;487432;244;28910;-82
2023/08/02 09:43:36;;;;;;;1.50;1.40;;;17.20;99.90;;;;;;496050;240;28795;-83
2023/08/02 09:45:37;;;;;;;1.90;1.50;;;17.10;99.90;;;;;;487462;244;28851;-80
2023/08/02 09:47:38;;;;;;;1.43;1.33;;;17.20;99.90;;;;;;496034;240;29156;-82
2023/08/02 09:49:40;;;;;;;1.40;1.23;;;17.30;99.90;;;;;;487504;244;29384;-81
2023/08/02 09:51:41;;;;;;;1.67;1.50;;;17.30;99.90;;;;;;496038;240;29103;-84
2023/08/02 09:53:42;;;;;;;4.70;1.70;;;17.30;99.90;;;;;;487520;244;28897;-84
2023/08/02 09:55:44;;;;;;;2.50;2.27;;;17.30;99.90;;;;;;495903;240;28771;-81
2023/08/02 09:57:45;;;;;;;2.33;2.13;;;17.30;99.90;;;;;;487487;244;28852;-81
2023/08/02 09:59:46;;;;;;;2.33;1.77;;;17.30;99.90;;;;;;496028;240;28809;-81
2023/08/02 10:01:47;;;;;;;1.93;1.83;;;17.30;99.90;;;;;;487547;244;28922;-81
2023/08/02 10:03:51;;;;;;;2.43;2.23;;;17.40;99.90;;;;;;496007;240;28783;-80
2023/08/02 10:05:50;;;;;;;2.20;2.00;;;17.40;99.90;;;;;;487278;244;28916;-81
2023/08/02 10:07:51;;;;;;;2.77;2.53;;;17.40;99.90;;;;;;496025;240;28709;-83
2023/08/02 10:09:52;;;;;;;2.53;2.33;;;17.40;99.90;;;;;;487539;244;28830;-82
2023/08/02 10:11:54;;;;;;;2.40;2.20;;;17.40;99.90;;;;;;496067;240;29329;-81
2023/08/02 10:13:55;;;;;;;2.20;2.00;;;17.40;99.90;;;;;;487626;244;29320;-81
2023/08/02 10:15:56;;;;;;;3.03;2.73;;;17.50;99.90;;;;;;496092;240;29192;-82
2023/08/02 10:17:58;;;;;;;3.13;2.50;;;17.50;99.90;;;;;;487520;244;28967;-83
2023/08/02 10:19:59;;;;;;;4.47;2.60;;;17.50;99.90;;;;;;495626;240;28941;-82
2023/08/02 10:22:00;;;;;;;2.80;2.40;;;17.60;99.90;;;;;;495914;240;28774;-81
2023/08/02 10:24:01;;;;;;;3.50;2.30;;;17.60;99.90;;;;;;487491;244;28821;-79
2023/08/02 10:26:02;;;;;;;6.33;2.67;;;17.60;99.90;;;;;;495971;240;28727;-82
2023/08/02 10:28:03;;;;;;;2.67;2.47;;;17.80;99.90;;;;;;487458;244;28881;-85
2023/08/02 10:30:05;;;;;;;3.27;2.97;;;17.80;99.90;;;;;;496010;240;28802;-83
2023/08/02 10:32:06;;;;;;;3.17;2.87;;;17.60;99.90;;;;;;487506;244;28725;-82
2023/08/02 10:34:07;;;;;;;3.40;2.63;;;17.80;99.90;;;;;;495698;240;28763;-84